Time;durP1;ratioP1;P1;durP2;ratioP2;P2;SDS_P1;SDS_P2;PMS_P1;PMS_P2;Temp;Humidity;BMP_temperature;BMP_pressure;BME280_temperature;BME280_humidity;BME280_pressure;Samples;Min_cycle;Max_cycle;Signal;HPM_P1;HPM_P2
2023/03/31 00:01:51;;;;;;;6.57;2.53;;;14.00;99.90;;;;;;5003625;28;20185;-72
2023/03/31 00:04:17;;;;;;;4.40;1.80;;;14.00;99.90;;;;;;5002896;28;20452;-72
2023/03/31 00:06:43;;;;;;;3.83;2.07;;;14.00;99.90;;;;;;5003412;28;20821;-73
2023/03/31 00:09:11;;;;;;;5.30;1.77;;;13.90;99.90;;;;;;5002593;28;20426;-74
2023/03/31 00:11:38;;;;;;;4.33;1.97;;;13.90;99.90;;;;;;5005662;28;20190;-74
2023/03/31 00:14:06;;;;;;;6.20;2.40;;;13.80;99.90;;;;;;5006494;28;20415;-71
2023/03/31 00:16:35;;;;;;;3.40;1.90;;;13.70;99.90;;;;;;5009009;28;20434;-72
2023/03/31 00:19:01;;;;;;;5.67;1.83;;;13.70;99.90;;;;;;5005817;28;20426;-72
2023/03/31 00:21:35;;;;;;;3.17;2.20;;;13.70;99.90;;;;;;5003274;28;20498;-72
2023/03/31 00:24:11;;;;;;;5.93;2.40;;;13.80;99.90;;;;;;5003351;28;20181;-72
2023/03/31 00:26:37;;;;;;;5.77;2.40;;;13.70;99.90;;;;;;5004203;28;20431;-72
2023/03/31 00:29:05;;;;;;;5.00;2.20;;;13.60;99.90;;;;;;5002688;28;20409;-72
2023/03/31 00:31:31;;;;;;;6.03;2.43;;;13.60;99.90;;;;;;5003152;28;20264;-72
2023/03/31 00:33:57;;;;;;;3.73;2.50;;;13.50;99.90;;;;;;5004447;28;20429;-71
2023/03/31 00:36:26;;;;;;;6.50;2.53;;;13.70;99.90;;;;;;5004548;28;20464;-71
2023/03/31 00:38:53;;;;;;;3.27;1.90;;;13.70;99.90;;;;;;5003908;28;20474;-72
2023/03/31 00:41:19;;;;;;;3.63;2.23;;;13.80;99.90;;;;;;5002895;28;20497;-71
2023/03/31 00:44:14;;;;;;;5.57;2.40;;;13.80;99.90;;;;;;5003665;28;20512;-71
2023/03/31 00:46:47;;;;;;;5.03;2.30;;;13.70;99.90;;;;;;5003959;28;20215;-71
2023/03/31 00:49:22;;;;;;;4.50;1.90;;;13.70;99.90;;;;;;5003545;28;20508;-71
2023/03/31 00:51:51;;;;;;;8.60;2.57;;;13.80;99.90;;;;;;5002812;28;20440;-71
2023/03/31 00:54:18;;;;;;;5.43;1.90;;;13.90;99.90;;;;;;5003511;28;20421;-71
2023/03/31 00:56:47;;;;;;;6.10;2.50;;;14.00;99.90;;;;;;5002096;28;20448;-71
2023/03/31 00:59:14;;;;;;;5.13;2.77;;;14.10;99.90;;;;;;5002145;28;20422;-72
2023/03/31 01:01:43;;;;;;;4.10;1.97;;;14.10;99.90;;;;;;5004136;28;20938;-72
2023/03/31 01:04:13;;;;;;;3.90;2.00;;;14.10;99.90;;;;;;5004050;28;20928;-72
2023/03/31 01:06:50;;;;;;;5.20;2.10;;;14.20;99.90;;;;;;5004056;28;20434;-73
2023/03/31 01:09:16;;;;;;;5.50;2.37;;;14.30;99.90;;;;;;5002544;28;20962;-72
2023/03/31 01:11:45;;;;;;;3.93;2.57;;;14.10;99.90;;;;;;5002585;28;20418;-72
2023/03/31 01:14:11;;;;;;;6.87;2.77;;;14.10;99.90;;;;;;5003909;28;20173;-72
2023/03/31 01:16:38;;;;;;;5.20;2.13;;;14.10;99.90;;;;;;5002458;28;20456;-73
2023/03/31 01:19:11;;;;;;;5.07;2.50;;;14.20;99.90;;;;;;5003864;28;20996;-71
2023/03/31 01:21:50;;;;;;;6.33;2.43;;;14.30;99.90;;;;;;5007071;28;20428;-73
2023/03/31 01:24:48;;;;;;;5.83;2.50;;;14.30;99.90;;;;;;5007985;28;20412;-73
2023/03/31 01:27:20;;;;;;;3.97;2.30;;;14.20;99.90;;;;;;5006054;28;20867;-73
2023/03/31 01:30:05;;;;;;;10.60;2.37;;;14.30;99.90;;;;;;5006373;28;20423;-72
2023/03/31 01:32:58;;;;;;;6.57;2.80;;;14.40;99.90;;;;;;5006799;28;20409;-72
2023/03/31 01:35:48;;;;;;;10.03;2.60;;;14.30;99.90;;;;;;5007731;28;20500;-71
2023/03/31 01:39:00;;;;;;;9.60;2.87;;;14.20;99.90;;;;;;5005887;28;20423;-70
2023/03/31 01:41:44;;;;;;;4.00;2.30;;;14.10;99.90;;;;;;5005981;28;20469;-71
2023/03/31 01:44:39;;;;;;;3.67;2.40;;;14.10;99.90;;;;;;5007074;28;20410;-72
2023/03/31 01:47:39;;;;;;;6.03;2.70;;;14.20;99.90;;;;;;5008526;28;20498;-72
2023/03/31 01:50:15;;;;;;;3.13;2.00;;;14.20;99.90;;;;;;5006481;28;20513;-73
2023/03/31 01:53:16;;;;;;;4.57;2.13;;;14.30;99.90;;;;;;5005824;28;20414;-73
2023/03/31 01:56:06;;;;;;;6.50;3.00;;;14.20;99.90;;;;;;5007028;28;20529;-71
2023/03/31 01:58:38;;;;;;;9.47;2.50;;;14.00;99.90;;;;;;5005184;28;20415;-71
2023/03/31 02:01:22;;;;;;;6.30;2.70;;;14.00;99.90;;;;;;5006192;28;20433;-72
2023/03/31 02:03:55;;;;;;;6.37;2.63;;;13.80;99.90;;;;;;5007526;28;20435;-71
2023/03/31 02:06:25;;;;;;;5.20;2.83;;;13.80;99.90;;;;;;5007689;28;20433;-71
2023/03/31 02:09:03;;;;;;;5.87;2.27;;;14.00;99.90;;;;;;5007320;28;20891;-71
2023/03/31 02:11:30;;;;;;;4.33;2.23;;;14.00;99.90;;;;;;5006574;28;20423;-71
2023/03/31 02:14:00;;;;;;;7.70;2.50;;;14.10;99.90;;;;;;5004431;28;20418;-70
2023/03/31 02:16:29;;;;;;;6.53;2.47;;;14.00;99.90;;;;;;5006341;28;20532;-71
2023/03/31 02:19:04;;;;;;;5.13;2.60;;;13.80;99.90;;;;;;5006961;28;20429;-72
2023/03/31 02:21:33;;;;;;;5.00;2.60;;;13.80;99.90;;;;;;5006944;28;20401;-71
2023/03/31 02:24:03;;;;;;;5.67;2.27;;;13.90;99.90;;;;;;5005352;28;20524;-71
2023/03/31 02:26:32;;;;;;;3.97;2.47;;;13.60;99.90;;;;;;5006506;28;20524;-71
2023/03/31 02:28:58;;;;;;;5.27;2.17;;;13.40;99.90;;;;;;5004788;28;20424;-72
2023/03/31 02:31:40;;;;;;;4.27;2.33;;;13.50;99.90;;;;;;5005899;28;20499;-72
2023/03/31 02:34:06;;;;;;;4.77;2.37;;;13.60;99.90;;;;;;5006299;28;20180;-71
2023/03/31 02:36:33;;;;;;;5.10;1.87;;;13.60;99.90;;;;;;5006901;28;20804;-72
2023/03/31 02:39:07;;;;;;;4.37;2.30;;;13.70;99.90;;;;;;5007277;28;20296;-72
2023/03/31 02:41:33;;;;;;;7.20;2.30;;;13.80;99.90;;;;;;5006815;28;20422;-71
2023/03/31 02:43:58;;;;;;;3.07;2.17;;;13.80;99.90;;;;;;5007608;28;20919;-74
2023/03/31 02:46:25;;;;;;;5.57;2.40;;;13.80;99.90;;;;;;5006475;28;20592;-73
2023/03/31 02:48:57;;;;;;;3.20;2.20;;;13.50;99.90;;;;;;5007265;28;20178;-75
2023/03/31 02:51:31;;;;;;;6.67;2.70;;;13.50;99.90;;;;;;5006937;28;20420;-73
2023/03/31 02:54:24;;;;;;;3.20;2.23;;;13.60;99.90;;;;;;5005114;28;20988;-72
2023/03/31 02:57:02;;;;;;;5.27;2.73;;;13.70;99.90;;;;;;5006374;28;20443;-74
2023/03/31 02:59:50;;;;;;;6.43;2.73;;;13.50;99.90;;;;;;5005939;28;20901;-74
2023/03/31 03:02:26;;;;;;;4.97;2.53;;;13.60;99.90;;;;;;5005689;28;20424;-74
2023/03/31 03:05:09;;;;;;;6.33;2.47;;;13.70;99.90;;;;;;5005847;28;20447;-74
2023/03/31 03:07:44;;;;;;;6.00;2.73;;;13.70;99.90;;;;;;5005598;28;20492;-73
2023/03/31 03:10:39;;;;;;;6.17;2.57;;;13.70;99.90;;;;;;5005909;28;20452;-72
2023/03/31 03:13:21;;;;;;;3.97;2.07;;;13.60;99.90;;;;;;5005687;28;20412;-75
2023/03/31 03:15:52;;;;;;;5.50;2.70;;;13.50;99.90;;;;;;5004954;28;20458;-73
2023/03/31 03:18:18;;;;;;;5.00;2.53;;;13.40;99.90;;;;;;5004710;28;20426;-74
2023/03/31 03:20:48;;;;;;;8.37;3.10;;;13.30;99.90;;;;;;5004630;28;20433;-74
2023/03/31 03:23:14;;;;;;;6.40;2.83;;;13.40;99.90;;;;;;5005559;28;20548;-74
2023/03/31 03:25:40;;;;;;;4.30;2.77;;;13.40;99.90;;;;;;5005239;28;21208;-74
2023/03/31 03:28:06;;;;;;;3.93;2.47;;;13.30;99.90;;;;;;5004776;28;20504;-74
2023/03/31 03:30:32;;;;;;;5.90;2.70;;;13.20;99.90;;;;;;5005084;28;20513;-74
2023/03/31 03:32:58;;;;;;;3.23;2.40;;;13.10;99.90;;;;;;5004196;28;20185;-74
2023/03/31 03:35:24;;;;;;;6.00;2.60;;;13.00;99.90;;;;;;5005004;28;20640;-74
2023/03/31 03:37:49;;;;;;;6.43;2.97;;;12.80;99.90;;;;;;5003269;28;20277;-73
2023/03/31 03:40:15;;;;;;;5.27;2.73;;;12.80;99.90;;;;;;5005781;28;20410;-74
2023/03/31 03:42:41;;;;;;;6.27;2.90;;;12.70;99.90;;;;;;5004230;28;20173;-72
2023/03/31 03:45:07;;;;;;;8.30;3.37;;;12.50;99.90;;;;;;5005419;28;20423;-74
2023/03/31 03:47:33;;;;;;;3.60;2.63;;;12.50;99.90;;;;;;5005136;28;20226;-73
2023/03/31 03:49:59;;;;;;;4.00;2.70;;;12.40;99.90;;;;;;5005246;28;20901;-73
2023/03/31 03:52:24;;;;;;;5.63;3.37;;;12.50;99.90;;;;;;5004818;28;20175;-73
2023/03/31 03:54:50;;;;;;;4.53;2.70;;;12.50;99.90;;;;;;5005058;28;20282;-73
2023/03/31 03:57:15;;;;;;;4.90;2.87;;;12.60;99.90;;;;;;5003445;28;20843;-73
2023/03/31 03:59:41;;;;;;;5.73;2.60;;;12.50;99.90;;;;;;4987358;28;20208;-73
2023/03/31 04:02:07;;;;;;;7.73;2.70;;;12.50;99.90;;;;;;5004383;28;20182;-72
2023/03/31 04:04:32;;;;;;;5.00;2.67;;;12.40;99.90;;;;;;5004367;28;20182;-73
2023/03/31 04:06:58;;;;;;;4.83;2.90;;;12.40;99.90;;;;;;5004766;28;20206;-75
2023/03/31 04:09:23;;;;;;;4.97;3.43;;;12.20;99.90;;;;;;5004688;28;20186;-74
2023/03/31 04:11:49;;;;;;;5.57;3.50;;;12.20;99.90;;;;;;5004650;28;20191;-74
2023/03/31 04:14:14;;;;;;;6.60;3.70;;;12.00;99.90;;;;;;5004244;28;20183;-73
2023/03/31 04:16:41;;;;;;;7.47;3.70;;;11.90;99.90;;;;;;5004610;28;20296;-74
2023/03/31 04:19:07;;;;;;;8.40;3.83;;;11.70;99.90;;;;;;5003544;28;20370;-74
2023/03/31 04:21:35;;;;;;;5.77;3.47;;;11.70;99.90;;;;;;5004721;28;20421;-74
2023/03/31 04:24:03;;;;;;;7.07;4.03;;;11.60;99.90;;;;;;5004549;28;20419;-74
2023/03/31 04:26:37;;;;;;;5.30;3.60;;;11.60;99.90;;;;;;5004190;28;20796;-74
2023/03/31 04:29:06;;;;;;;6.37;3.97;;;11.70;99.90;;;;;;5003249;28;20429;-74
2023/03/31 04:31:32;;;;;;;9.40;4.10;;;11.80;99.90;;;;;;5004005;28;20417;-73
2023/03/31 04:34:01;;;;;;;8.57;3.93;;;11.80;99.90;;;;;;5003562;28;20418;-73
2023/03/31 04:36:30;;;;;;;10.07;4.80;;;11.90;99.90;;;;;;5003962;28;20877;-73
2023/03/31 04:38:56;;;;;;;9.10;4.37;;;11.90;99.90;;;;;;5002296;28;20426;-74
2023/03/31 04:41:23;;;;;;;10.63;5.20;;;12.00;99.90;;;;;;5002853;28;20454;-73
2023/03/31 04:43:49;;;;;;;5.90;3.60;;;12.00;99.90;;;;;;5002744;28;20910;-73
2023/03/31 04:46:15;;;;;;;5.87;4.00;;;12.10;99.90;;;;;;5021434;23;20470;-74
2023/03/31 04:48:41;;;;;;;8.03;4.10;;;12.10;99.90;;;;;;5021059;28;20510;-72
2023/03/31 04:51:08;;;;;;;6.97;4.10;;;12.20;99.90;;;;;;5022835;28;20675;-73
2023/03/31 04:53:33;;;;;;;4.60;3.63;;;12.20;99.90;;;;;;5023050;28;20594;-73
2023/03/31 04:55:59;;;;;;;9.17;4.80;;;12.10;99.90;;;;;;5021319;28;21251;-73
2023/03/31 04:58:25;;;;;;;5.77;4.00;;;12.10;99.90;;;;;;5003136;28;20179;-73
2023/03/31 05:00:51;;;;;;;7.27;4.37;;;12.10;99.90;;;;;;5003446;28;20191;-73
2023/03/31 05:03:17;;;;;;;7.73;4.10;;;12.10;99.90;;;;;;5002945;28;20182;-74
2023/03/31 05:05:42;;;;;;;8.23;4.60;;;12.20;99.90;;;;;;5002913;28;20428;-73
2023/03/31 05:08:08;;;;;;;6.13;4.53;;;12.30;99.90;;;;;;5003221;28;20213;-74
2023/03/31 05:10:33;;;;;;;7.27;4.43;;;12.40;99.90;;;;;;5001537;28;20194;-73
2023/03/31 05:12:59;;;;;;;5.60;4.73;;;12.40;99.90;;;;;;5003131;28;20223;-74
2023/03/31 05:15:25;;;;;;;7.47;4.33;;;12.30;99.90;;;;;;5003110;28;20679;-73
2023/03/31 05:17:51;;;;;;;5.60;4.50;;;12.20;99.90;;;;;;5002422;28;20199;-73
2023/03/31 05:20:18;;;;;;;8.10;4.77;;;12.20;99.90;;;;;;5003305;28;20241;-74
2023/03/31 05:22:44;;;;;;;7.33;5.13;;;12.10;99.90;;;;;;5002817;28;20417;-74
2023/03/31 05:25:13;;;;;;;9.13;4.87;;;12.00;99.90;;;;;;5003085;28;20423;-73
2023/03/31 05:27:39;;;;;;;7.43;4.20;;;12.20;99.90;;;;;;5002982;28;20428;-74
2023/03/31 05:30:06;;;;;;;8.17;4.30;;;12.20;99.90;;;;;;5002747;28;20861;-74
2023/03/31 05:32:32;;;;;;;6.47;4.03;;;12.50;99.90;;;;;;5001760;28;20775;-74
2023/03/31 05:34:58;;;;;;;8.33;5.50;;;12.60;99.90;;;;;;5002920;28;20462;-74
2023/03/31 05:37:24;;;;;;;6.93;4.60;;;12.70;99.90;;;;;;5002813;28;20737;-74
2023/03/31 05:39:51;;;;;;;7.33;4.13;;;12.60;99.90;;;;;;5003045;28;20177;-74
2023/03/31 05:42:18;;;;;;;8.50;5.60;;;12.60;99.90;;;;;;5003057;28;20535;-74
2023/03/31 05:44:44;;;;;;;9.57;5.80;;;12.50;99.90;;;;;;5001975;28;20437;-73
2023/03/31 05:47:10;;;;;;;8.80;5.37;;;12.70;99.90;;;;;;5002228;28;20466;-72
2023/03/31 05:49:36;;;;;;;6.93;5.13;;;12.40;99.90;;;;;;5002386;28;20456;-73
2023/03/31 05:52:02;;;;;;;8.33;5.00;;;12.40;99.90;;;;;;5002520;28;20649;-72
2023/03/31 05:54:28;;;;;;;6.67;5.57;;;12.50;99.90;;;;;;5001971;28;20429;-73
2023/03/31 05:56:53;;;;;;;32.23;24.93;;;12.50;99.90;;;;;;5002503;28;20214;-72
2023/03/31 05:59:19;;;;;;;11.70;8.20;;;12.50;99.90;;;;;;5002063;28;20187;-74
2023/03/31 06:01:44;;;;;;;8.63;5.23;;;12.40;99.90;;;;;;5002535;28;20184;-74
2023/03/31 06:04:10;;;;;;;7.77;5.07;;;12.30;99.90;;;;;;5002547;28;20191;-75
2023/03/31 06:06:36;;;;;;;8.00;5.33;;;12.40;99.90;;;;;;5003662;28;20946;-74
2023/03/31 06:09:03;;;;;;;8.47;5.80;;;12.50;99.90;;;;;;5004861;28;20190;-74
2023/03/31 06:11:28;;;;;;;9.57;5.47;;;12.70;99.90;;;;;;5005768;28;20437;-73
2023/03/31 06:13:54;;;;;;;5.67;4.97;;;12.70;99.90;;;;;;5005729;28;20464;-74
2023/03/31 06:16:19;;;;;;;7.17;5.10;;;12.60;99.90;;;;;;5003223;28;20221;-74
2023/03/31 06:18:45;;;;;;;9.13;5.80;;;12.60;99.90;;;;;;5006013;28;20270;-74
2023/03/31 06:21:16;;;;;;;10.10;5.67;;;12.60;99.90;;;;;;5004224;28;20653;-75
2023/03/31 06:23:45;;;;;;;11.47;5.73;;;12.60;99.90;;;;;;5005404;28;20258;-75
2023/03/31 06:26:13;;;;;;;9.53;5.23;;;12.70;99.90;;;;;;5005118;28;20411;-75
2023/03/31 06:28:39;;;;;;;7.00;5.00;;;12.80;99.90;;;;;;5005433;28;20431;-75
2023/03/31 06:31:07;;;;;;;6.53;4.63;;;12.90;99.90;;;;;;5003995;28;20432;-75
2023/03/31 06:33:33;;;;;;;8.50;5.43;;;12.70;99.90;;;;;;5004477;28;20182;-75
2023/03/31 06:36:00;;;;;;;10.33;7.23;;;12.70;99.90;;;;;;5005042;28;20643;-75
2023/03/31 06:38:26;;;;;;;7.33;5.00;;;12.60;99.90;;;;;;5004729;28;20467;-75
2023/03/31 06:40:52;;;;;;;8.53;5.33;;;12.60;99.90;;;;;;5004538;28;20487;-75
2023/03/31 06:43:18;;;;;;;7.33;6.00;;;12.70;99.90;;;;;;5004849;28;20507;-74
2023/03/31 06:45:43;;;;;;;10.00;6.00;;;12.60;99.90;;;;;;5004410;28;20229;-75
2023/03/31 06:48:09;;;;;;;7.60;5.10;;;12.50;99.90;;;;;;5004415;28;20316;-75
2023/03/31 06:50:37;;;;;;;10.47;5.43;;;12.50;99.90;;;;;;5005015;28;20361;-74
2023/03/31 06:53:03;;;;;;;9.00;6.77;;;12.50;99.90;;;;;;5003540;28;20186;-75
2023/03/31 06:55:29;;;;;;;9.37;6.20;;;12.50;99.90;;;;;;5003750;28;20456;-74
2023/03/31 06:57:55;;;;;;;10.20;6.30;;;12.50;99.90;;;;;;5004169;28;20441;-74
2023/03/31 07:00:21;;;;;;;9.03;5.90;;;12.20;99.90;;;;;;5005369;28;20181;-75
2023/03/31 07:02:46;;;;;;;6.87;5.27;;;11.90;99.90;;;;;;5005050;28;20417;-74
2023/03/31 07:05:12;;;;;;;6.40;5.40;;;11.60;99.90;;;;;;5004913;28;20207;-74
2023/03/31 07:07:37;;;;;;;7.63;5.07;;;11.50;99.90;;;;;;5004909;28;20214;-74
2023/03/31 07:10:03;;;;;;;6.43;5.10;;;11.40;99.90;;;;;;5004693;28;20209;-76
2023/03/31 07:12:32;;;;;;;7.17;5.10;;;11.50;99.90;;;;;;5004759;28;20266;-74
2023/03/31 07:14:58;;;;;;;8.10;4.80;;;11.50;99.90;;;;;;5004490;28;20828;-74
2023/03/31 07:17:24;;;;;;;7.33;4.40;;;11.60;99.90;;;;;;5003087;28;20454;-76
2023/03/31 07:19:50;;;;;;;7.40;4.33;;;11.50;99.90;;;;;;5004908;28;20226;-74
2023/03/31 07:22:15;;;;;;;5.07;3.80;;;11.60;99.90;;;;;;5004554;28;20471;-74
2023/03/31 07:24:41;;;;;;;4.90;3.73;;;11.60;99.90;;;;;;5003391;28;20179;-75
2023/03/31 07:27:07;;;;;;;5.27;3.60;;;11.60;99.90;;;;;;5004087;28;20212;-75
2023/03/31 07:29:32;;;;;;;4.63;3.30;;;11.90;99.90;;;;;;5003525;28;20176;-74
2023/03/31 07:31:58;;;;;;;4.20;3.07;;;12.00;99.90;;;;;;5003433;28;20176;-73
2023/03/31 07:34:24;;;;;;;4.90;3.03;;;11.90;99.90;;;;;;5003333;28;20200;-75
2023/03/31 07:36:50;;;;;;;5.13;4.40;;;11.80;99.90;;;;;;5004156;28;20731;-75
2023/03/31 07:39:16;;;;;;;3.80;3.23;;;11.90;99.90;;;;;;5003865;28;20225;-73
2023/03/31 07:41:41;;;;;;;3.80;2.80;;;12.00;99.90;;;;;;5004385;28;20430;-74
2023/03/31 07:44:07;;;;;;;3.30;2.63;;;11.90;99.90;;;;;;5003537;28;20283;-74
2023/03/31 07:46:33;;;;;;;3.57;2.43;;;11.80;99.90;;;;;;5002488;28;20261;-74
2023/03/31 07:49:01;;;;;;;2.63;2.40;;;12.00;99.90;;;;;;5004267;28;20449;-73
2023/03/31 07:51:26;;;;;;;2.60;2.40;;;12.10;99.90;;;;;;5004073;28;20258;-75
2023/03/31 07:53:52;;;;;;;2.30;1.80;;;12.10;99.90;;;;;;5003866;28;20902;-73
2023/03/31 07:56:20;;;;;;;4.10;1.80;;;12.10;99.90;;;;;;5003576;28;20210;-73
2023/03/31 07:58:45;;;;;;;2.37;1.57;;;12.20;99.90;;;;;;5003781;28;20186;-74
2023/03/31 08:01:16;;;;;;;3.37;1.80;;;12.20;99.90;;;;;;5003363;28;21013;-74
2023/03/31 08:03:42;;;;;;;2.40;1.40;;;12.20;99.90;;;;;;5003088;28;20229;-74
2023/03/31 08:06:08;;;;;;;2.53;1.87;;;12.20;99.90;;;;;;5002142;28;20419;-73
2023/03/31 08:08:37;;;;;;;1.67;1.43;;;12.30;99.90;;;;;;5003407;28;20475;-74
2023/03/31 08:11:03;;;;;;;1.50;1.13;;;12.30;99.90;;;;;;5004240;28;20253;-73
2023/03/31 08:13:28;;;;;;;1.00;0.90;;;12.30;99.90;;;;;;5003476;28;20414;-74
2023/03/31 08:15:54;;;;;;;1.93;1.53;;;12.40;99.90;;;;;;5002799;28;20701;-74
2023/03/31 08:18:19;;;;;;;3.87;1.40;;;12.50;99.90;;;;;;5002450;28;20206;-73
2023/03/31 08:20:48;;;;;;;1.20;1.10;;;12.60;99.90;;;;;;5002326;28;20739;-73
2023/03/31 08:23:14;;;;;;;1.37;1.27;;;12.60;99.90;;;;;;5001790;28;20181;-73
2023/03/31 08:25:40;;;;;;;1.50;1.23;;;12.70;99.90;;;;;;5002029;28;20423;-75
2023/03/31 08:28:09;;;;;;;2.10;1.50;;;12.80;99.90;;;;;;5003182;28;20442;-73
2023/03/31 08:30:37;;;;;;;2.77;1.30;;;12.90;99.90;;;;;;5003013;28;20510;-74
2023/03/31 08:33:03;;;;;;;2.17;1.10;;;13.00;99.90;;;;;;5002148;28;21254;-73
2023/03/31 08:35:28;;;;;;;3.27;1.23;;;13.10;99.90;;;;;;5001731;28;20552;-74
2023/03/31 08:37:54;;;;;;;3.50;1.33;;;13.10;99.90;;;;;;5002756;28;20295;-73
2023/03/31 08:40:23;;;;;;;1.63;1.37;;;13.20;99.90;;;;;;5002922;28;20213;-73
2023/03/31 08:42:51;;;;;;;1.80;1.30;;;13.20;99.90;;;;;;5003393;28;20249;-73
2023/03/31 08:45:30;;;;;;;4.37;1.30;;;13.30;99.90;;;;;;5003371;28;20424;-73
2023/03/31 08:48:25;;;;;;;4.10;1.53;;;13.40;99.90;;;;;;5002398;28;20520;-73
2023/03/31 08:51:09;;;;;;;4.33;1.73;;;13.60;99.90;;;;;;5002597;28;20409;-73
2023/03/31 08:53:41;;;;;;;3.33;1.50;;;13.60;99.90;;;;;;5003655;28;20402;-73
2023/03/31 08:56:13;;;;;;;1.90;1.60;;;13.70;99.90;;;;;;5003209;28;20500;-73
2023/03/31 08:58:41;;;;;;;3.80;1.80;;;13.70;99.90;;;;;;5003089;28;21276;-73
2023/03/31 09:01:31;;;;;;;2.40;1.20;;;13.80;99.90;;;;;;5001536;28;20417;-73
2023/03/31 09:04:21;;;;;;;2.40;1.60;;;13.90;99.90;;;;;;5002900;28;20421;-74
2023/03/31 09:07:11;;;;;;;2.87;1.67;;;13.90;99.90;;;;;;5002677;28;20815;-72
2023/03/31 09:09:51;;;;;;;3.70;1.63;;;14.20;99.90;;;;;;5002875;28;20422;-73
2023/03/31 09:12:26;;;;;;;2.77;1.40;;;14.30;99.90;;;;;;5002791;28;20512;-74
2023/03/31 09:15:03;;;;;;;2.20;1.30;;;14.30;99.90;;;;;;5002954;28;20445;-73
2023/03/31 09:17:36;;;;;;;4.13;1.63;;;14.50;99.90;;;;;;5002361;28;20433;-73
2023/03/31 09:20:19;;;;;;;2.80;1.30;;;14.60;99.90;;;;;;5002966;28;20401;-73
2023/03/31 09:23:05;;;;;;;3.97;1.43;;;14.60;99.90;;;;;;5002645;28;20429;-73
2023/03/31 09:25:34;;;;;;;2.93;1.30;;;14.70;99.90;;;;;;5002834;28;20497;-73
2023/03/31 09:28:03;;;;;;;5.07;1.50;;;14.80;99.90;;;;;;5001429;28;20468;-73
2023/03/31 09:30:32;;;;;;;3.43;1.47;;;15.20;99.90;;;;;;5002981;28;20414;-74
2023/03/31 09:33:15;;;;;;;4.87;2.57;;;15.50;99.90;;;;;;5001466;28;20895;-73
2023/03/31 09:35:41;;;;;;;2.13;1.03;;;15.90;99.90;;;;;;5002671;28;20454;-74
2023/03/31 09:38:11;;;;;;;2.27;1.30;;;15.70;99.90;;;;;;5003225;28;20952;-74
2023/03/31 09:40:37;;;;;;;3.30;1.80;;;15.50;99.90;;;;;;5003114;28;20180;-74
2023/03/31 09:43:07;;;;;;;2.07;1.20;;;15.50;99.90;;;;;;5006382;28;20468;-73
2023/03/31 09:45:34;;;;;;;5.13;1.90;;;15.30;99.90;;;;;;5006406;28;20414;-74
2023/03/31 09:48:27;;;;;;;5.70;1.70;;;15.30;99.90;;;;;;5005954;28;20449;-74
2023/03/31 09:51:01;;;;;;;5.10;1.93;;;15.20;99.90;;;;;;5006676;28;20414;-75
2023/03/31 09:53:44;;;;;;;3.93;2.10;;;15.30;99.90;;;;;;5006663;28;20417;-73
2023/03/31 09:56:10;;;;;;;4.53;1.50;;;15.40;99.90;;;;;;5006701;28;20481;-73
2023/03/31 09:58:45;;;;;;;1.97;1.20;;;15.70;99.90;;;;;;5006677;28;20410;-74
2023/03/31 10:01:12;;;;;;;2.77;1.87;;;16.10;99.90;;;;;;5005350;28;20175;-74
2023/03/31 10:03:53;;;;;;;4.10;1.73;;;16.20;99.90;;;;;;5006134;28;20461;-72
2023/03/31 10:06:20;;;;;;;2.47;1.60;;;16.00;99.90;;;;;;5006296;28;20925;-73
2023/03/31 10:08:56;;;;;;;2.63;1.33;;;16.00;99.90;;;;;;5006158;28;20433;-73
2023/03/31 10:11:22;;;;;;;3.73;1.57;;;16.00;99.90;;;;;;5005960;28;20402;-72
2023/03/31 10:13:58;;;;;;;7.00;1.50;;;15.90;99.90;;;;;;5005807;28;20411;-74
2023/03/31 10:16:29;;;;;;;4.07;1.93;;;15.80;99.90;;;;;;5006053;28;20893;-73
2023/03/31 10:19:30;;;;;;;5.07;1.93;;;15.80;99.90;;;;;;5005929;28;20426;-72
2023/03/31 10:22:05;;;;;;;4.90;1.87;;;15.90;99.90;;;;;;5005299;28;20414;-74
2023/03/31 10:24:44;;;;;;;5.37;1.80;;;16.00;99.90;;;;;;5005517;28;20409;-73
2023/03/31 10:27:30;;;;;;;4.67;2.33;;;16.00;99.90;;;;;;5005061;28;20484;-72
2023/03/31 10:30:08;;;;;;;4.40;2.00;;;16.20;99.90;;;;;;5005176;28;20406;-72
2023/03/31 10:32:40;;;;;;;4.37;1.90;;;16.30;99.90;;;;;;5003565;28;20469;-73
2023/03/31 10:35:20;;;;;;;4.57;1.53;;;16.60;99.90;;;;;;5005107;28;20755;-73
2023/03/31 10:37:48;;;;;;;3.33;1.93;;;16.80;99.90;;;;;;5004939;28;20484;-73
2023/03/31 10:40:19;;;;;;;3.63;1.80;;;16.70;99.90;;;;;;5005063;28;20862;-73
2023/03/31 10:42:48;;;;;;;4.50;1.83;;;16.50;99.90;;;;;;5004995;28;20407;-72
2023/03/31 10:45:25;;;;;;;4.50;1.93;;;16.40;99.20;;;;;;5004729;28;20421;-73
2023/03/31 10:47:54;;;;;;;3.60;1.73;;;16.40;99.60;;;;;;5020855;23;20501;-72
2023/03/31 10:50:29;;;;;;;6.33;2.17;;;16.30;99.60;;;;;;5004735;28;20426;-71
2023/03/31 10:53:13;;;;;;;3.97;1.80;;;16.30;99.80;;;;;;5001942;28;20422;-71
2023/03/31 10:55:44;;;;;;;5.97;2.30;;;16.40;99.00;;;;;;5002789;28;20485;-72
2023/03/31 10:58:38;;;;;;;7.93;2.13;;;16.80;99.50;;;;;;5005945;28;20453;-72
2023/03/31 11:01:22;;;;;;;6.10;2.00;;;17.10;98.20;;;;;;5005980;28;20964;-71
2023/03/31 11:04:00;;;;;;;2.90;1.70;;;17.00;97.20;;;;;;5004603;28;20922;-71
2023/03/31 11:06:38;;;;;;;4.97;2.33;;;17.00;96.80;;;;;;5005968;28;20418;-72
2023/03/31 11:09:12;;;;;;;5.00;1.80;;;17.00;97.10;;;;;;5005911;28;20918;-72
2023/03/31 11:12:15;;;;;;;4.00;1.63;;;16.60;96.90;;;;;;5005550;28;20458;-72
2023/03/31 11:15:02;;;;;;;4.17;1.80;;;16.40;97.40;;;;;;5005721;28;20509;-71
2023/03/31 11:17:51;;;;;;;9.33;2.20;;;16.40;97.60;;;;;;5003031;28;20497;-72
2023/03/31 11:20:31;;;;;;;3.67;1.67;;;16.10;98.30;;;;;;5006065;28;20446;-71
2023/03/31 11:23:05;;;;;;;4.10;1.67;;;15.50;99.90;;;;;;5005846;28;20461;-70
2023/03/31 11:25:38;;;;;;;5.37;1.70;;;14.90;99.90;;;;;;5006423;28;20944;-70
2023/03/31 11:28:26;;;;;;;2.57;1.20;;;13.90;99.90;;;;;;5005128;28;20441;-69
2023/03/31 11:31:16;;;;;;;3.20;0.93;;;12.10;99.90;;;;;;5005924;28;20459;-71
2023/03/31 11:34:08;;;;;;;2.90;1.20;;;11.40;99.90;;;;;;5006751;28;20411;-69
2023/03/31 11:36:37;;;;;;;2.00;0.90;;;11.10;99.90;;;;;;5005040;28;20458;-71
2023/03/31 11:39:13;;;;;;;2.93;0.90;;;11.00;99.90;;;;;;5006128;28;20426;-71
2023/03/31 11:41:52;;;;;;;2.60;1.20;;;11.00;99.90;;;;;;5006036;28;20632;-70
2023/03/31 11:44:19;;;;;;;2.20;0.93;;;11.00;99.90;;;;;;5003567;28;20423;-70
2023/03/31 11:47:00;;;;;;;1.37;0.70;;;11.00;99.90;;;;;;5005285;28;20458;-71
2023/03/31 11:49:36;;;;;;;1.77;0.90;;;11.00;99.90;;;;;;5005050;28;20428;-69
2023/03/31 11:52:08;;;;;;;1.47;0.80;;;11.00;99.90;;;;;;5004939;28;20505;-70
2023/03/31 11:54:40;;;;;;;1.00;0.67;;;10.90;99.90;;;;;;5005380;28;20395;-71
2023/03/31 11:57:16;;;;;;;2.17;0.87;;;10.90;99.90;;;;;;5003429;28;20450;-69
2023/03/31 11:59:43;;;;;;;1.77;0.97;;;11.10;99.90;;;;;;5004649;28;20509;-70
2023/03/31 12:02:28;;;;;;;3.80;0.97;;;11.60;99.90;;;;;;5005074;28;20494;-69
2023/03/31 12:04:55;;;;;;;1.70;0.70;;;12.20;99.90;;;;;;5004546;28;21442;-70
2023/03/31 12:07:30;;;;;;;2.80;0.90;;;13.10;99.90;;;;;;5005113;28;20496;-70
2023/03/31 12:10:16;;;;;;;1.10;0.60;;;14.40;99.90;;;;;;5004543;28;20474;-71
2023/03/31 12:12:48;;;;;;;0.80;0.53;;;16.20;99.90;;;;;;5004613;28;20402;-71
2023/03/31 12:15:26;;;;;;;1.23;0.60;;;18.10;99.90;;;;;;5003767;28;20450;-71
2023/03/31 12:18:24;;;;;;;1.37;0.60;;;19.00;99.90;;;;;;5019550;28;20450;-71
2023/03/31 12:20:54;;;;;;;1.10;0.80;;;19.50;98.80;;;;;;4981849;28;20525;-72
2023/03/31 12:23:27;;;;;;;1.70;0.80;;;18.30;99.40;;;;;;5004662;28;20415;-72
2023/03/31 12:26:09;;;;;;;1.20;0.60;;;17.70;99.90;;;;;;5003297;28;20482;-70
2023/03/31 12:28:37;;;;;;;1.50;0.70;;;16.60;99.90;;;;;;5004726;28;20441;-71
2023/03/31 12:31:06;;;;;;;1.80;0.90;;;15.80;99.90;;;;;;5001739;28;20522;-70
2023/03/31 12:33:39;;;;;;;1.70;0.93;;;17.00;99.90;;;;;;5003833;28;20427;-72
2023/03/31 12:36:38;;;;;;;1.73;0.80;;;17.60;99.00;;;;;;5004249;28;20451;-72
2023/03/31 12:39:17;;;;;;;1.57;0.90;;;18.10;99.80;;;;;;5002570;28;20469;-71
2023/03/31 12:41:55;;;;;;;1.13;0.60;;;19.60;97.80;;;;;;5004189;28;20413;-71
2023/03/31 12:44:59;;;;;;;1.87;1.13;;;18.80;96.40;;;;;;5004018;28;20417;-71
2023/03/31 12:47:33;;;;;;;0.97;0.70;;;19.50;96.60;;;;;;5000719;28;20461;-71
2023/03/31 12:50:19;;;;;;;1.10;0.67;;;19.70;95.10;;;;;;5004512;28;20906;-72
2023/03/31 12:52:58;;;;;;;1.63;1.00;;;20.60;93.60;;;;;;5002017;28;20864;-71
2023/03/31 12:55:35;;;;;;;1.83;0.80;;;20.50;95.70;;;;;;5004278;28;20456;-70
2023/03/31 12:58:25;;;;;;;0.90;0.60;;;21.30;93.90;;;;;;5004365;28;20521;-71
2023/03/31 13:01:04;;;;;;;2.00;1.00;;;21.20;93.10;;;;;;5003940;28;20419;-72
2023/03/31 13:03:33;;;;;;;3.33;0.87;;;21.30;92.60;;;;;;5004273;28;20417;-70
2023/03/31 13:05:59;;;;;;;1.93;0.93;;;19.70;94.10;;;;;;5004310;28;20492;-71
2023/03/31 13:08:48;;;;;;;3.50;1.20;;;18.80;94.90;;;;;;5004090;28;20789;-71
2023/03/31 13:11:15;;;;;;;2.33;1.30;;;18.00;94.50;;;;;;5003721;28;20419;-71